createdAt,value
2019-03-31T00:01:52.545Z,61.17
2019-03-31T00:03:52.750Z,61.29
2019-03-31T00:05:52.770Z,60.58
2019-03-31T00:07:52.674Z,61.97
2019-03-31T00:09:52.333Z,61.32
2019-03-31T00:11:52.338Z,61.23
2019-03-31T00:13:52.399Z,60.97
2019-03-31T00:15:52.621Z,61.45
2019-03-31T00:17:52.577Z,61.34
2019-03-31T00:19:52.609Z,61.60
2019-03-31T00:21:52.357Z,61.69
2019-03-31T00:23:52.780Z,61.91
2019-03-31T00:25:52.340Z,61.82
2019-03-31T00:27:52.576Z,62.51
2019-03-31T00:29:52.521Z,63.41
2019-03-31T00:31:52.570Z,63.73
2019-03-31T00:33:52.621Z,63.81
2019-03-31T00:35:52.426Z,64.00
2019-03-31T00:37:53.066Z,64.50
2019-03-31T00:39:52.663Z,64.92
2019-03-31T00:41:52.666Z,64.82
2019-03-31T00:43:52.646Z,65.12
2019-03-31T00:45:52.495Z,65.16
2019-03-31T00:47:52.471Z,65.13
2019-03-31T00:49:52.642Z,65.21
2019-03-31T00:51:52.837Z,65.62
2019-03-31T00:53:52.616Z,66.15
2019-03-31T00:55:52.757Z,66.10
2019-03-31T00:57:52.567Z,66.35
2019-03-31T00:59:52.927Z,66.56
2019-03-31T01:01:52.355Z,66.53
2019-03-31T01:03:52.601Z,67.01
2019-03-31T01:05:52.345Z,66.78
2019-03-31T01:07:55.701Z,67.17
2019-03-31T01:09:52.647Z,66.78
2019-03-31T01:11:52.647Z,67.09
2019-03-31T01:13:52.742Z,67.64
2019-03-31T01:15:52.671Z,67.97
2019-03-31T01:17:52.689Z,68.65
2019-03-31T01:19:52.685Z,69.05
2019-03-31T01:21:52.500Z,68.96
2019-03-31T01:23:52.919Z,69.87
2019-03-31T01:25:52.557Z,69.85
2019-03-31T01:27:52.637Z,69.77
2019-03-31T01:29:52.432Z,71.07
2019-03-31T01:31:52.618Z,70.50
2019-03-31T01:33:52.463Z,70.61
2019-03-31T01:35:52.460Z,71.21
2019-03-31T01:37:52.703Z,71.30
2019-03-31T01:39:52.632Z,71.71
2019-03-31T01:41:52.522Z,71.70
2019-03-31T01:43:52.732Z,72.01
2019-03-31T01:45:53.566Z,72.24
2019-03-31T01:47:52.509Z,72.25
2019-03-31T01:49:52.763Z,72.56
2019-03-31T01:51:53.191Z,72.21
2019-03-31T01:53:52.379Z,72.35
2019-03-31T01:55:52.796Z,72.57
2019-03-31T01:57:52.561Z,72.83
2019-03-31T01:59:52.618Z,73.55
2019-03-31T02:02:03.500Z,74.05
2019-03-31T02:03:52.646Z,73.36
2019-03-31T02:05:52.652Z,74.07
2019-03-31T02:07:52.538Z,74.47
2019-03-31T02:09:52.526Z,74.64
2019-03-31T02:11:53.918Z,74.48
2019-03-31T02:13:52.581Z,74.61
2019-03-31T02:15:52.557Z,74.75
2019-03-31T02:17:52.554Z,75.17
2019-03-31T02:19:52.634Z,74.88
2019-03-31T02:21:52.863Z,75.46
2019-03-31T02:23:52.664Z,75.50
2019-03-31T02:25:52.669Z,75.93
2019-03-31T02:27:52.897Z,75.65
2019-03-31T02:29:52.700Z,76.33
2019-03-31T02:31:52.719Z,77.67
2019-03-31T02:33:52.720Z,76.92
2019-03-31T02:35:52.880Z,77.81
2019-03-31T02:37:52.744Z,77.74
2019-03-31T02:39:52.752Z,78.14
2019-03-31T02:41:52.332Z,78.00
2019-03-31T02:43:52.539Z,78.25
2019-03-31T02:45:52.523Z,77.84
2019-03-31T02:47:52.394Z,78.38
2019-03-31T02:49:52.715Z,78.58
2019-03-31T02:51:52.733Z,78.66
2019-03-31T02:53:52.729Z,78.23
2019-03-31T02:55:52.748Z,77.53
2019-03-31T02:57:52.677Z,77.85
2019-03-31T02:59:52.684Z,78.03
2019-03-31T03:01:52.785Z,78.71
2019-03-31T03:03:52.799Z,78.64
2019-03-31T03:05:52.566Z,78.22
2019-03-31T03:07:52.716Z,78.26
2019-03-31T03:09:52.610Z,78.52
2019-03-31T03:11:52.482Z,79.00
2019-03-31T03:13:52.752Z,79.05
2019-03-31T03:15:52.773Z,79.36
2019-03-31T03:17:52.467Z,79.64
2019-03-31T03:19:52.626Z,79.25
2019-03-31T03:21:52.798Z,79.71
2019-03-31T03:23:52.615Z,79.74
2019-03-31T03:25:56.237Z,79.80
2019-03-31T03:27:52.469Z,79.69
2019-03-31T03:29:52.841Z,79.97
2019-03-31T03:31:52.761Z,80.04
2019-03-31T03:33:52.418Z,80.15
2019-03-31T03:35:52.676Z,80.32
2019-03-31T03:37:52.483Z,80.50
2019-03-31T03:39:52.442Z,80.49
2019-03-31T03:41:52.714Z,80.67
2019-03-31T03:43:55.306Z,81.05
2019-03-31T03:45:52.527Z,80.98
2019-03-31T03:47:52.543Z,81.19
2019-03-31T03:49:52.830Z,81.60
2019-03-31T03:51:52.466Z,81.87
2019-03-31T03:53:52.446Z,82.07
2019-03-31T03:55:52.500Z,82.29
2019-03-31T03:57:52.909Z,82.49
2019-03-31T03:59:52.596Z,83.32
2019-03-31T04:01:52.947Z,83.26
2019-03-31T04:03:52.532Z,83.05
2019-03-31T04:05:52.749Z,83.10
2019-03-31T04:07:52.533Z,82.85
2019-03-31T04:09:52.975Z,83.03
2019-03-31T04:11:52.780Z,83.73
2019-03-31T04:13:52.737Z,83.82
2019-03-31T04:15:52.769Z,83.65
2019-03-31T04:17:52.562Z,83.68
2019-03-31T04:19:52.704Z,83.66
2019-03-31T04:21:52.748Z,83.63
2019-03-31T04:23:52.526Z,84.04
2019-03-31T04:25:52.964Z,84.28
2019-03-31T04:27:52.773Z,84.03
2019-03-31T04:29:52.789Z,83.54
2019-03-31T04:31:52.800Z,83.52
2019-03-31T04:33:53.231Z,84.18
2019-03-31T04:35:52.613Z,84.23
2019-03-31T04:37:52.524Z,83.77
2019-03-31T04:39:52.547Z,84.28
2019-03-31T04:41:52.507Z,83.88
2019-03-31T04:43:52.632Z,84.00
2019-03-31T04:45:52.683Z,83.64
2019-03-31T04:47:53.099Z,83.98
2019-03-31T04:49:52.491Z,84.25
2019-03-31T04:51:52.715Z,83.83
2019-03-31T04:53:52.673Z,84.02
2019-03-31T04:55:52.737Z,83.96
2019-03-31T04:57:52.828Z,84.38
2019-03-31T04:59:52.557Z,84.26
2019-03-31T05:01:52.872Z,84.54
2019-03-31T05:04:03.841Z,84.50
2019-03-31T05:05:53.109Z,84.26
2019-03-31T05:07:52.808Z,84.77
2019-03-31T05:09:52.813Z,84.87
2019-03-31T05:11:52.765Z,85.49
2019-03-31T05:13:52.844Z,85.28
2019-03-31T05:15:52.601Z,85.37
2019-03-31T05:17:52.755Z,85.46
2019-03-31T05:19:52.884Z,85.28
2019-03-31T05:21:52.882Z,85.83
2019-03-31T05:23:52.846Z,85.70
2019-03-31T05:25:52.715Z,85.66
2019-03-31T05:27:52.925Z,85.69
2019-03-31T05:29:52.937Z,85.80
2019-03-31T05:31:53.205Z,86.25
2019-03-31T05:33:52.955Z,86.09
2019-03-31T05:35:52.662Z,85.53
2019-03-31T05:37:52.775Z,86.34
2019-03-31T05:39:52.785Z,85.54
2019-03-31T05:41:52.795Z,86.12
2019-03-31T05:44:05.131Z,86.08
2019-03-31T05:45:52.733Z,86.21
2019-03-31T05:47:52.838Z,86.28
2019-03-31T05:49:52.642Z,86.12
2019-03-31T05:51:52.800Z,86.63
2019-03-31T05:53:52.869Z,86.40
2019-03-31T05:55:53.090Z,86.53
2019-03-31T05:57:52.795Z,86.63
2019-03-31T05:59:53.107Z,85.94
2019-03-31T06:01:52.698Z,86.14
2019-03-31T06:03:52.931Z,86.24
2019-03-31T06:05:52.736Z,86.54
2019-03-31T06:07:52.753Z,86.19
2019-03-31T06:09:52.859Z,85.78
2019-03-31T06:11:53.560Z,86.14
2019-03-31T06:13:52.901Z,85.69
2019-03-31T06:15:53.100Z,85.65
2019-03-31T06:17:52.916Z,85.76
2019-03-31T06:19:52.846Z,85.95
2019-03-31T06:21:52.841Z,85.33
2019-03-31T06:23:52.942Z,85.19
2019-03-31T06:25:52.752Z,84.62
2019-03-31T06:27:53.022Z,83.50
2019-03-31T06:29:52.674Z,82.58
2019-03-31T06:31:53.091Z,81.99
2019-03-31T06:33:52.798Z,81.35
2019-03-31T06:35:52.708Z,79.86
2019-03-31T06:37:52.670Z,78.60
2019-03-31T06:39:52.939Z,77.53
2019-03-31T06:41:52.947Z,76.50
2019-03-31T06:43:53.164Z,75.16
2019-03-31T06:45:52.766Z,73.57
2019-03-31T06:47:52.533Z,72.26
2019-03-31T06:49:52.724Z,71.50
2019-03-31T06:51:52.808Z,69.99
2019-03-31T06:53:52.864Z,68.89
2019-03-31T06:55:53.129Z,67.60
2019-03-31T06:57:52.935Z,65.37
2019-03-31T06:59:52.949Z,65.92
2019-03-31T07:01:53.174Z,64.15
2019-03-31T07:03:52.770Z,64.10
2019-03-31T07:05:52.578Z,62.11
2019-03-31T07:07:52.851Z,61.64
2019-03-31T07:09:52.741Z,59.85
2019-03-31T07:11:52.830Z,60.02
2019-03-31T07:13:52.804Z,60.94
2019-03-31T07:15:52.843Z,59.31
2019-03-31T07:17:52.952Z,59.15
2019-03-31T07:19:52.963Z,60.05
2019-03-31T07:21:52.980Z,59.37
2019-03-31T07:23:53.138Z,59.85
2019-03-31T07:25:53.008Z,59.04
2019-03-31T07:27:52.692Z,58.91
2019-03-31T07:29:52.927Z,59.38
2019-03-31T07:31:52.622Z,59.35
2019-03-31T07:33:52.637Z,59.21
2019-03-31T07:35:52.645Z,58.07
2019-03-31T07:37:52.865Z,58.34
2019-03-31T07:39:52.964Z,58.73
2019-03-31T07:41:53.262Z,57.64
2019-03-31T07:43:52.698Z,57.50
2019-03-31T07:45:55.690Z,57.82
2019-03-31T07:47:52.925Z,58.16
2019-03-31T07:49:52.608Z,57.94
2019-03-31T07:51:52.752Z,57.20
2019-03-31T07:53:52.956Z,56.97
2019-03-31T07:55:53.027Z,57.58
2019-03-31T07:57:54.559Z,58.13
2019-03-31T07:59:52.656Z,56.97
2019-03-31T08:01:52.681Z,56.74
2019-03-31T08:03:52.715Z,55.81
2019-03-31T08:05:52.727Z,55.64
2019-03-31T08:07:52.944Z,55.92
2019-03-31T08:09:52.964Z,54.55
2019-03-31T08:11:52.970Z,55.14
2019-03-31T08:13:55.294Z,55.05
2019-03-31T08:15:53.199Z,54.44
2019-03-31T08:17:52.805Z,55.01
2019-03-31T08:19:53.022Z,54.92
2019-03-31T08:21:52.769Z,55.36
2019-03-31T08:23:52.752Z,54.66
2019-03-31T08:25:53.048Z,53.46
2019-03-31T08:27:53.056Z,53.92
2019-03-31T08:30:00.390Z,54.43
2019-03-31T08:31:53.079Z,54.46
2019-03-31T08:33:52.987Z,54.13
2019-03-31T08:35:52.846Z,54.55
2019-03-31T08:37:53.035Z,54.13
2019-03-31T08:39:52.926Z,53.42
2019-03-31T08:41:53.077Z,51.26
2019-03-31T08:43:52.845Z,52.27
2019-03-31T08:45:55.600Z,52.35
2019-03-31T08:47:53.078Z,51.69
2019-03-31T08:49:53.086Z,51.27
2019-03-31T08:51:53.000Z,50.64
2019-03-31T08:53:52.776Z,50.90
2019-03-31T08:55:53.015Z,50.00
2019-03-31T08:57:53.035Z,49.05
2019-03-31T08:59:52.837Z,48.54
2019-03-31T09:01:53.029Z,47.76
2019-03-31T09:03:52.806Z,47.04
2019-03-31T09:06:01.590Z,45.65
2019-03-31T09:07:53.252Z,44.56
2019-03-31T09:09:53.202Z,44.75
2019-03-31T09:11:52.915Z,43.13
2019-03-31T09:13:53.331Z,43.92
2019-03-31T09:15:53.137Z,45.11
2019-03-31T09:17:54.305Z,44.38
2019-03-31T09:19:52.956Z,44.58
2019-03-31T09:21:52.965Z,43.72
2019-03-31T09:23:53.004Z,43.56
2019-03-31T09:25:52.786Z,42.90
2019-03-31T09:27:52.903Z,43.16
2019-03-31T09:29:52.911Z,44.57
2019-03-31T09:31:53.014Z,42.95
2019-03-31T09:33:53.020Z,43.05
2019-03-31T09:35:53.147Z,43.49
2019-03-31T09:37:52.973Z,44.09
2019-03-31T09:39:53.075Z,44.67
2019-03-31T09:41:53.096Z,44.33
2019-03-31T09:43:53.099Z,44.38
2019-03-31T09:45:53.037Z,43.63
2019-03-31T09:47:52.919Z,44.07
2019-03-31T09:49:53.133Z,43.43
2019-03-31T09:51:53.146Z,43.72
2019-03-31T09:53:53.052Z,43.42
2019-03-31T09:55:52.958Z,43.88
2019-03-31T09:57:53.177Z,43.46
2019-03-31T09:59:52.987Z,44.47
2019-03-31T10:01:53.140Z,44.28
2019-03-31T10:03:53.220Z,44.03
2019-03-31T10:05:52.814Z,44.75
2019-03-31T10:07:52.797Z,44.57
2019-03-31T10:09:53.149Z,44.04
2019-03-31T10:11:52.895Z,43.89
2019-03-31T10:13:53.066Z,43.66
2019-03-31T10:15:52.780Z,43.17
2019-03-31T10:17:53.094Z,43.04
2019-03-31T10:19:53.116Z,42.42
2019-03-31T10:21:53.115Z,42.90
2019-03-31T10:23:53.136Z,43.39
2019-03-31T10:25:53.351Z,43.59
2019-03-31T10:27:53.155Z,42.89
2019-03-31T10:29:52.959Z,43.47
2019-03-31T10:31:53.178Z,41.88
2019-03-31T10:33:53.387Z,40.79
2019-03-31T10:35:52.931Z,40.86
2019-03-31T10:37:53.211Z,42.28
2019-03-31T10:39:53.018Z,43.39
2019-03-31T10:41:53.030Z,42.85
2019-03-31T10:43:53.163Z,44.35
2019-03-31T10:45:53.261Z,42.90
2019-03-31T10:47:53.061Z,42.86
2019-03-31T10:49:52.867Z,43.17
2019-03-31T10:51:53.054Z,43.60
2019-03-31T10:53:52.992Z,42.50
2019-03-31T10:55:53.034Z,43.36
2019-03-31T10:57:53.225Z,42.54
2019-03-31T10:59:53.234Z,42.30
2019-03-31T11:01:53.376Z,42.09
2019-03-31T11:03:52.951Z,42.14
2019-03-31T11:05:53.189Z,43.47
2019-03-31T11:07:52.959Z,43.26
2019-03-31T11:09:53.197Z,43.96
2019-03-31T11:11:53.148Z,44.96
2019-03-31T11:13:53.109Z,44.03
2019-03-31T11:15:53.311Z,43.30
2019-03-31T11:17:53.179Z,43.40
2019-03-31T11:19:53.250Z,43.47
2019-03-31T11:21:53.470Z,41.91
2019-03-31T11:23:52.897Z,41.95
2019-03-31T11:25:52.946Z,40.85
2019-03-31T11:27:53.198Z,39.86
2019-03-31T11:29:53.005Z,40.12
2019-03-31T11:31:53.220Z,40.26
2019-03-31T11:33:53.267Z,40.79
2019-03-31T11:35:53.248Z,41.40
2019-03-31T11:37:53.056Z,41.68
2019-03-31T11:39:53.062Z,41.46
2019-03-31T11:41:53.426Z,41.38
2019-03-31T11:43:53.045Z,43.71
2019-03-31T11:45:53.317Z,44.97
2019-03-31T11:47:53.311Z,46.46
2019-03-31T11:49:53.543Z,46.93
2019-03-31T11:51:53.339Z,46.77
2019-03-31T11:53:53.042Z,46.06
2019-03-31T11:55:52.951Z,46.45
2019-03-31T11:57:53.176Z,46.34
2019-03-31T11:59:53.193Z,45.81
2019-03-31T12:01:53.193Z,45.29
2019-03-31T12:03:53.009Z,45.96
2019-03-31T12:05:53.218Z,45.82
2019-03-31T12:07:53.158Z,46.03
2019-03-31T12:09:53.053Z,45.10
2019-03-31T12:11:53.258Z,44.77
2019-03-31T12:13:53.222Z,44.06
2019-03-31T12:15:53.493Z,45.02
2019-03-31T12:17:53.493Z,45.79
2019-03-31T12:19:53.303Z,46.39
2019-03-31T12:21:53.318Z,45.79
2019-03-31T12:23:53.322Z,46.14
2019-03-31T12:25:53.246Z,45.93
2019-03-31T12:27:53.184Z,45.97
2019-03-31T12:29:53.215Z,45.60
2019-03-31T12:31:53.472Z,45.68
2019-03-31T12:33:53.278Z,46.47
2019-03-31T12:35:53.299Z,46.70
2019-03-31T12:37:53.313Z,47.42
2019-03-31T12:39:53.419Z,46.64
2019-03-31T12:41:53.425Z,45.42
2019-03-31T12:43:53.442Z,45.02
2019-03-31T12:45:53.044Z,43.54
2019-03-31T12:47:53.055Z,45.14
2019-03-31T12:49:53.331Z,44.36
2019-03-31T12:51:55.107Z,44.51
2019-03-31T12:53:53.306Z,43.47
2019-03-31T12:56:00.019Z,42.16
2019-03-31T12:57:53.451Z,42.86
2019-03-31T12:59:53.447Z,42.27
2019-03-31T13:01:53.382Z,42.43
2019-03-31T13:03:53.465Z,43.13
2019-03-31T13:05:53.265Z,42.88
2019-03-31T13:07:56.580Z,42.67
2019-03-31T13:09:53.296Z,42.45
2019-03-31T13:11:53.303Z,41.84
2019-03-31T13:13:53.321Z,40.80
2019-03-31T13:15:53.116Z,42.61
2019-03-31T13:17:53.334Z,42.34
2019-03-31T13:19:53.462Z,41.88
2019-03-31T13:21:53.260Z,41.29
2019-03-31T13:23:53.049Z,41.22
2019-03-31T13:25:53.283Z,41.43
2019-03-31T13:27:53.397Z,41.39
2019-03-31T13:29:53.405Z,41.53
2019-03-31T13:31:53.431Z,41.24
2019-03-31T13:33:53.329Z,40.97
2019-03-31T13:35:53.344Z,42.30
2019-03-31T13:37:53.364Z,42.78
2019-03-31T13:39:53.365Z,43.41
2019-03-31T13:41:53.380Z,43.68
2019-03-31T13:43:53.154Z,43.60
2019-03-31T13:45:53.197Z,43.83
2019-03-31T13:47:53.219Z,44.24
2019-03-31T13:49:53.425Z,44.40
2019-03-31T13:51:53.131Z,45.26
2019-03-31T13:53:53.561Z,44.97
2019-03-31T13:55:53.384Z,45.38
2019-03-31T13:57:54.220Z,45.41
2019-03-31T13:59:53.289Z,45.21
2019-03-31T14:01:53.215Z,45.45
2019-03-31T14:03:53.510Z,45.68
2019-03-31T14:05:53.430Z,46.11
2019-03-31T14:07:53.541Z,46.08
2019-03-31T14:09:53.444Z,44.98
2019-03-31T14:11:53.305Z,45.14
2019-03-31T14:13:55.984Z,44.92
2019-03-31T14:15:53.184Z,44.98
2019-03-31T14:17:53.502Z,45.32
2019-03-31T14:19:53.064Z,46.12
2019-03-31T14:21:53.315Z,46.16
2019-03-31T14:23:53.532Z,46.56
2019-03-31T14:25:53.097Z,46.77
2019-03-31T14:27:53.143Z,47.04
2019-03-31T14:29:53.360Z,47.37
2019-03-31T14:31:53.777Z,47.66
2019-03-31T14:33:53.380Z,48.70
2019-03-31T14:35:53.295Z,48.32
2019-03-31T14:37:53.224Z,48.90
2019-03-31T14:39:53.320Z,50.02
2019-03-31T14:41:53.232Z,50.69
2019-03-31T14:43:53.233Z,51.31
2019-03-31T14:45:53.248Z,52.13
2019-03-31T14:47:53.281Z,52.71
2019-03-31T14:49:53.246Z,53.38
2019-03-31T14:51:53.481Z,54.41
2019-03-31T14:53:53.411Z,55.11
2019-03-31T14:55:53.257Z,55.42
2019-03-31T14:57:53.309Z,55.53
2019-03-31T14:59:53.437Z,56.22
2019-03-31T15:01:53.351Z,56.67
2019-03-31T15:03:53.462Z,56.62
2019-03-31T15:05:53.269Z,57.23
2019-03-31T15:07:53.558Z,57.07
2019-03-31T15:09:53.293Z,57.25
2019-03-31T15:11:53.704Z,57.37
2019-03-31T15:13:53.314Z,57.54
2019-03-31T15:15:53.248Z,57.62
2019-03-31T15:17:53.336Z,57.99
2019-03-31T15:19:53.651Z,58.06
2019-03-31T15:21:53.356Z,57.65
2019-03-31T15:23:53.886Z,58.51
2019-03-31T15:25:53.699Z,58.03
2019-03-31T15:27:53.287Z,58.15
2019-03-31T15:29:53.309Z,58.22
2019-03-31T15:31:53.524Z,58.57
2019-03-31T15:33:53.230Z,58.72
2019-03-31T15:35:53.136Z,58.83
2019-03-31T15:37:53.143Z,58.71
2019-03-31T15:39:53.372Z,58.62
2019-03-31T15:41:53.271Z,58.66
2019-03-31T15:43:53.629Z,58.40
2019-03-31T15:45:53.434Z,58.79
2019-03-31T15:47:53.203Z,58.59
2019-03-31T15:49:53.336Z,58.94
2019-03-31T15:51:53.536Z,58.95
2019-03-31T15:53:53.451Z,58.54
2019-03-31T15:55:53.461Z,59.14
2019-03-31T15:57:53.264Z,59.16
2019-03-31T15:59:53.480Z,59.40
2019-03-31T16:01:53.395Z,59.63
2019-03-31T16:03:53.517Z,59.58
2019-03-31T16:05:53.317Z,59.52
2019-03-31T16:07:53.607Z,60.04
2019-03-31T16:09:54.571Z,59.91
2019-03-31T16:11:54.229Z,59.92
2019-03-31T16:13:53.155Z,60.03
2019-03-31T16:15:53.287Z,59.92
2019-03-31T16:17:53.183Z,59.86
2019-03-31T16:19:53.429Z,59.96
2019-03-31T16:21:53.512Z,59.82
2019-03-31T16:23:53.632Z,59.74
2019-03-31T16:25:53.345Z,60.10
2019-03-31T16:27:53.349Z,60.11
2019-03-31T16:29:53.573Z,60.17
2019-03-31T16:31:53.473Z,60.14
2019-03-31T16:33:53.482Z,60.18
2019-03-31T16:35:53.293Z,59.92
2019-03-31T16:37:53.442Z,60.14
2019-03-31T16:39:53.239Z,60.18
2019-03-31T16:41:53.523Z,60.66
2019-03-31T16:43:53.284Z,60.32
2019-03-31T16:45:53.391Z,60.17
2019-03-31T16:47:53.463Z,60.04
2019-03-31T16:49:53.477Z,59.93
2019-03-31T16:51:53.695Z,59.86
2019-03-31T16:53:53.504Z,59.91
2019-03-31T16:55:53.307Z,59.47
2019-03-31T16:57:53.524Z,59.78
2019-03-31T16:59:53.432Z,60.70
2019-03-31T17:01:53.551Z,60.05
2019-03-31T17:03:53.362Z,60.40
2019-03-31T17:05:53.562Z,60.50
2019-03-31T17:07:53.591Z,60.96
2019-03-31T17:09:53.794Z,61.09
2019-03-31T17:11:54.587Z,60.85
2019-03-31T17:13:53.751Z,61.13
2019-03-31T17:15:53.329Z,61.57
2019-03-31T17:17:53.640Z,61.54
2019-03-31T17:19:53.256Z,61.48
2019-03-31T17:21:53.467Z,61.92
2019-03-31T17:23:53.268Z,62.04
2019-03-31T17:25:53.693Z,62.14
2019-03-31T17:27:53.493Z,61.96
2019-03-31T17:29:53.303Z,62.03
2019-03-31T17:31:53.512Z,62.26
2019-03-31T17:33:53.227Z,62.56
2019-03-31T17:35:53.236Z,62.77
2019-03-31T17:37:53.518Z,62.88
2019-03-31T17:40:05.401Z,63.11
2019-03-31T17:41:53.539Z,62.96
2019-03-31T17:43:53.690Z,63.47
2019-03-31T17:45:53.809Z,63.61
2019-03-31T17:47:53.511Z,64.26
2019-03-31T17:49:53.528Z,64.18
2019-03-31T17:51:53.327Z,64.74
2019-03-31T17:53:53.344Z,65.04
2019-03-31T17:55:53.758Z,65.18
2019-03-31T17:57:53.648Z,65.12
2019-03-31T17:59:53.478Z,65.49
2019-03-31T18:01:53.365Z,66.31
2019-03-31T18:03:53.595Z,66.01
2019-03-31T18:05:53.438Z,65.80
2019-03-31T18:07:53.310Z,66.25
2019-03-31T18:09:53.470Z,66.15
2019-03-31T18:11:53.558Z,66.45
2019-03-31T18:13:53.599Z,66.35
2019-03-31T18:15:53.372Z,66.59
2019-03-31T18:17:53.855Z,66.53
2019-03-31T18:19:53.391Z,66.70
2019-03-31T18:21:53.402Z,66.72
2019-03-31T18:23:53.383Z,66.77
2019-03-31T18:25:53.836Z,66.58
2019-03-31T18:27:53.570Z,67.00
2019-03-31T18:29:53.613Z,67.10
2019-03-31T18:31:53.668Z,66.87
2019-03-31T18:33:53.479Z,67.13
2019-03-31T18:35:53.692Z,66.90
2019-03-31T18:37:53.455Z,67.33
2019-03-31T18:39:53.447Z,67.28
2019-03-31T18:41:53.314Z,67.60
2019-03-31T18:43:54.042Z,67.60
2019-03-31T18:45:53.448Z,67.74
2019-03-31T18:47:53.632Z,67.77
2019-03-31T18:49:53.469Z,67.54
2019-03-31T18:51:54.320Z,67.36
2019-03-31T18:53:53.595Z,67.92
2019-03-31T18:55:53.404Z,67.82
2019-03-31T18:57:53.510Z,68.06
2019-03-31T18:59:53.532Z,67.44
2019-03-31T19:01:53.541Z,67.88
2019-03-31T19:03:53.649Z,67.84
2019-03-31T19:05:53.982Z,67.62
2019-03-31T19:07:53.572Z,68.19
2019-03-31T19:09:53.595Z,68.13
2019-03-31T19:11:53.603Z,68.00
2019-03-31T19:13:55.700Z,67.84
2019-03-31T19:15:53.636Z,67.97
2019-03-31T19:17:53.679Z,68.27
2019-03-31T19:19:53.512Z,68.07
2019-03-31T19:21:53.610Z,68.14
2019-03-31T19:23:53.669Z,68.54
2019-03-31T19:25:53.611Z,67.90
2019-03-31T19:27:53.440Z,68.25
2019-03-31T19:29:53.451Z,68.11
2019-03-31T19:31:53.610Z,68.07
2019-03-31T19:33:53.611Z,68.23
2019-03-31T19:35:53.639Z,68.19
2019-03-31T19:37:53.429Z,67.78
2019-03-31T19:39:53.663Z,68.08
2019-03-31T19:41:53.675Z,67.93
2019-03-31T19:43:53.894Z,67.97
2019-03-31T19:45:53.690Z,68.17
2019-03-31T19:47:53.501Z,67.94
2019-03-31T19:49:53.633Z,68.18
2019-03-31T19:51:53.533Z,68.11
2019-03-31T19:53:53.544Z,68.10
2019-03-31T19:56:06.972Z,68.14
2019-03-31T19:57:53.530Z,68.28
2019-03-31T19:59:53.476Z,68.60
2019-03-31T20:01:53.694Z,68.18
2019-03-31T20:03:53.496Z,68.79
2019-03-31T20:05:53.708Z,68.41
2019-03-31T20:07:53.523Z,68.15
2019-03-31T20:09:53.739Z,68.52
2019-03-31T20:11:53.540Z,68.57
2019-03-31T20:13:53.521Z,68.91
2019-03-31T20:15:53.681Z,68.86
2019-03-31T20:17:53.538Z,68.92
2019-03-31T20:19:53.596Z,68.56
2019-03-31T20:21:53.915Z,68.87
2019-03-31T20:23:53.590Z,69.17
2019-03-31T20:25:53.509Z,69.12
2019-03-31T20:27:53.644Z,68.94
2019-03-31T20:29:53.605Z,69.38
2019-03-31T20:31:53.569Z,69.16
2019-03-31T20:33:53.709Z,69.36
2019-03-31T20:35:54.094Z,69.37
2019-03-31T20:37:53.781Z,69.49
2019-03-31T20:39:57.003Z,69.66
2019-03-31T20:41:53.619Z,69.40
2019-03-31T20:43:53.829Z,69.65
2019-03-31T20:45:53.633Z,69.65
2019-03-31T20:47:53.551Z,69.95
2019-03-31T20:49:53.572Z,69.65
2019-03-31T20:51:53.577Z,70.19
2019-03-31T20:53:53.608Z,69.52
2019-03-31T20:55:53.514Z,69.87
2019-03-31T20:57:53.371Z,69.90
2019-03-31T20:59:53.526Z,70.04
2019-03-31T21:01:53.630Z,70.12
2019-03-31T21:03:53.663Z,69.93
2019-03-31T21:05:56.631Z,70.17
2019-03-31T21:07:53.665Z,69.98
2019-03-31T21:09:53.505Z,70.08
2019-03-31T21:11:53.643Z,70.29
2019-03-31T21:13:56.758Z,70.38
2019-03-31T21:15:53.721Z,70.09
2019-03-31T21:17:53.685Z,70.70
2019-03-31T21:19:53.495Z,70.57
2019-03-31T21:21:53.751Z,70.65
2019-03-31T21:23:53.664Z,70.76
2019-03-31T21:25:53.678Z,70.71
2019-03-31T21:27:53.584Z,70.91
2019-03-31T21:29:53.590Z,71.44
2019-03-31T21:31:53.602Z,71.06
2019-03-31T21:33:53.590Z,71.36
2019-03-31T21:35:53.397Z,71.20
2019-03-31T21:37:53.537Z,71.44
2019-03-31T21:39:53.671Z,71.56
2019-03-31T21:41:53.660Z,71.64
2019-03-31T21:43:53.515Z,71.54
2019-03-31T21:45:53.373Z,71.38
2019-03-31T21:47:53.553Z,71.94
2019-03-31T21:49:53.613Z,72.26
2019-03-31T21:51:53.827Z,72.05
2019-03-31T21:53:53.643Z,72.38
2019-03-31T21:55:53.743Z,72.66
2019-03-31T21:57:53.725Z,72.78
2019-03-31T21:59:53.560Z,72.46
2019-03-31T22:01:53.506Z,72.37
2019-03-31T22:03:53.368Z,72.92
2019-03-31T22:05:53.599Z,73.07
2019-03-31T22:07:53.544Z,72.79
2019-03-31T22:09:53.429Z,73.31
2019-03-31T22:11:53.530Z,73.36
2019-03-31T22:13:53.817Z,73.31
2019-03-31T22:15:53.657Z,73.67
2019-03-31T22:17:53.607Z,73.58
2019-03-31T22:19:53.618Z,73.56
2019-03-31T22:21:53.996Z,73.83
2019-03-31T22:23:58.158Z,73.40
2019-03-31T22:25:53.769Z,74.12
2019-03-31T22:27:53.627Z,74.15
2019-03-31T22:29:53.640Z,74.25
2019-03-31T22:31:54.019Z,74.44
2019-03-31T22:33:53.589Z,74.24
2019-03-31T22:35:53.677Z,74.23
2019-03-31T22:37:53.698Z,74.17
2019-03-31T22:39:53.528Z,74.64
2019-03-31T22:41:53.810Z,74.83
2019-03-31T22:43:53.961Z,74.92
2019-03-31T22:45:53.628Z,74.96
2019-03-31T22:47:53.639Z,75.18
2019-03-31T22:49:53.811Z,75.27
2019-03-31T22:51:56.426Z,75.37
2019-03-31T22:53:53.681Z,75.34
2019-03-31T22:55:53.689Z,75.98
2019-03-31T22:57:53.699Z,75.71
2019-03-31T22:59:53.822Z,75.91
2019-03-31T23:01:53.728Z,75.74
2019-03-31T23:03:53.735Z,75.69
2019-03-31T23:05:53.751Z,76.36
2019-03-31T23:07:53.476Z,76.57
2019-03-31T23:09:53.694Z,76.68
2019-03-31T23:11:53.657Z,76.61
2019-03-31T23:13:53.653Z,76.84
2019-03-31T23:15:53.916Z,77.00
2019-03-31T23:17:53.665Z,76.66
2019-03-31T23:19:53.728Z,76.51
2019-03-31T23:21:53.480Z,76.78
2019-03-31T23:23:53.756Z,77.15
2019-03-31T23:25:53.767Z,77.28
2019-03-31T23:27:53.772Z,77.22
2019-03-31T23:29:53.739Z,77.18
2019-03-31T23:31:53.594Z,77.28
2019-03-31T23:33:53.755Z,77.29
2019-03-31T23:35:53.824Z,77.48
2019-03-31T23:37:53.517Z,77.53
2019-03-31T23:39:53.432Z,77.72
2019-03-31T23:41:53.659Z,77.77
2019-03-31T23:43:53.668Z,78.11
2019-03-31T23:45:53.886Z,77.58
2019-03-31T23:47:53.904Z,78.25
2019-03-31T23:49:54.009Z,78.04
2019-03-31T23:51:53.817Z,78.23
2019-03-31T23:53:53.622Z,77.93
2019-03-31T23:55:53.746Z,78.42
2019-03-31T23:57:53.751Z,78.35
2019-03-31T23:59:53.839Z,78.08
